Time,TemperatureF,DewpointF,PressureIn,WindDirection,WindDirectionDegrees,WindSpeedMPH,WindSpeedGustMPH,Humidity,HourlyPrecipIn,Conditions,Clouds,dailyrainin,SoftwareType,DateUTC
2013-08-30 00:01:00,59.2,57.8,29.97,NE,45,0.0,0.0,95,0.00,,,0.00,Wunderground v.1.15,2013-08-30 04:01:00,
2013-08-30 00:02:00,59.2,57.8,29.96,NE,45,0.0,0.0,95,0.00,,,0.00,Wunderground v.1.15,2013-08-30 04:02:00,
2013-08-30 00:03:00,59.2,57.8,29.97,NE,45,0.0,0.0,95,0.00,,,0.00,Wunderground v.1.15,2013-08-30 04:03:00,
2013-08-30 00:06:00,59.2,57.8,29.97,NE,45,0.0,0.0,95,0.00,,,0.00,Wunderground v.1.15,2013-08-30 04:06:00,
2013-08-30 00:12:00,59.3,58.2,29.97,NE,45,0.0,0.0,96,0.00,,,0.00,Wunderground v.1.15,2013-08-30 04:12:00,
2013-08-30 00:17:00,59.3,58.2,29.97,NE,36,0.0,0.0,96,0.00,,,0.00,Wunderground v.1.15,2013-08-30 04:17:00,
2013-08-30 00:19:00,59.3,58.2,29.97,NE,36,0.0,0.0,96,0.00,,,0.00,Wunderground v.1.15,2013-08-30 04:19:00,
2013-08-30 00:24:00,59.3,58.2,29.97,NE,36,0.0,0.0,96,0.00,,,0.00,Wunderground v.1.15,2013-08-30 04:24:00,
2013-08-30 00:28:00,59.3,58.2,29.97,NNE,15,0.0,0.0,96,0.00,,,0.00,Wunderground v.1.15,2013-08-30 04:28:00,
2013-08-30 00:33:00,59.2,58.1,29.96,North,360,0.0,1.0,96,0.00,,,0.00,Wunderground v.1.15,2013-08-30 04:33:00,
2013-08-30 00:39:00,59.1,58.0,29.96,North,360,0.0,1.0,96,0.00,,,0.00,Wunderground v.1.15,2013-08-30 04:39:00,
2013-08-30 00:44:00,59.1,58.0,29.97,North,360,0.0,0.0,96,0.00,,,0.00,Wunderground v.1.15,2013-08-30 04:44:00,
2013-08-30 00:49:00,59.1,58.0,29.96,North,9,0.0,0.0,96,0.00,,,0.00,Wunderground v.1.15,2013-08-30 04:49:00,
2013-08-30 00:55:00,59.1,58.0,29.96,North,11,0.0,0.0,96,0.00,,,0.00,Wunderground v.1.15,2013-08-30 04:55:00,
2013-08-30 01:00:00,59.1,58.0,29.96,North,10,0.0,0.0,96,0.00,,,0.00,Wunderground v.1.15,2013-08-30 05:00:00,
2013-08-30 01:06:00,59.0,57.9,29.96,North,10,0.0,0.0,96,0.00,,,0.00,Wunderground v.1.15,2013-08-30 05:06:00,
2013-08-30 01:12:00,59.0,57.9,29.96,North,10,0.0,0.0,96,0.00,,,0.00,Wunderground v.1.15,2013-08-30 05:12:00,
2013-08-30 01:18:00,59.0,57.9,29.96,North,10,0.0,0.0,96,0.00,,,0.00,Wunderground v.1.15,2013-08-30 05:18:00,
2013-08-30 01:23:00,58.9,57.8,29.95,North,11,0.0,0.0,96,0.00,,,0.00,Wunderground v.1.15,2013-08-30 05:23:00,
2013-08-30 01:28:00,58.9,57.8,29.95,North,10,0.0,0.0,96,0.00,,,0.00,Wunderground v.1.15,2013-08-30 05:28:00,
2013-08-30 01:33:00,58.9,57.8,29.95,North,360,0.0,1.0,96,0.00,,,0.00,Wunderground v.1.15,2013-08-30 05:33:00,
2013-08-30 01:38:00,58.9,58.1,29.95,NNW,341,0.0,1.0,97,0.00,,,0.00,Wunderground v.1.15,2013-08-30 05:38:00,
2013-08-30 01:43:00,58.9,58.1,29.95,NW,304,0.0,1.0,97,0.00,,,0.00,Wunderground v.1.15,2013-08-30 05:43:00,
2013-08-30 01:48:00,59.0,58.2,29.95,North,5,0.0,2.0,97,0.00,,,0.00,Wunderground v.1.15,2013-08-30 05:48:00,
2013-08-30 01:53:00,59.1,58.2,29.95,NNW,338,0.0,1.0,97,0.00,,,0.00,Wunderground v.1.15,2013-08-30 05:53:00,
2013-08-30 01:58:00,59.2,58.3,29.95,NW,306,0.0,1.0,97,0.00,,,0.00,Wunderground v.1.15,2013-08-30 05:58:00,
2013-08-30 02:03:00,59.3,58.4,29.95,WNW,300,0.0,0.0,97,0.00,,,0.00,Wunderground v.1.15,2013-08-30 06:03:00,
2013-08-30 02:09:00,59.4,58.5,29.95,WNW,298,0.0,0.0,97,0.00,,,0.00,Wunderground v.1.15,2013-08-30 06:09:00,
2013-08-30 02:14:00,59.4,58.5,29.95,NW,310,0.0,1.0,97,0.00,,,0.00,Wunderground v.1.15,2013-08-30 06:14:00,
2013-08-30 02:19:00,59.5,58.4,29.95,NW,308,0.0,1.0,96,0.00,,,0.00,Wunderground v.1.15,2013-08-30 06:19:00,
2013-08-30 02:24:00,59.5,58.4,29.95,NW,308,0.0,1.0,96,0.00,,,0.00,Wunderground v.1.15,2013-08-30 06:24:00,
2013-08-30 02:29:00,59.6,58.5,29.95,NW,308,0.0,1.0,96,0.00,,,0.00,Wunderground v.1.15,2013-08-30 06:29:00,
2013-08-30 02:34:00,59.6,58.5,29.94,NW,308,0.0,0.0,96,0.00,,,0.00,Wunderground v.1.15,2013-08-30 06:34:00,
2013-08-30 02:39:00,59.6,58.5,29.94,NW,323,0.0,0.0,96,0.00,,,0.00,Wunderground v.1.15,2013-08-30 06:39:00,
2013-08-30 02:45:00,59.8,58.7,29.94,NW,323,0.0,0.0,96,0.00,,,0.00,Wunderground v.1.15,2013-08-30 06:45:00,
2013-08-30 02:51:00,59.8,58.7,29.94,NW,323,0.0,0.0,96,0.00,,,0.00,Wunderground v.1.15,2013-08-30 06:51:00,
2013-08-30 02:56:00,59.9,58.8,29.94,NW,323,0.0,0.0,96,0.00,,,0.00,Wunderground v.1.15,2013-08-30 06:56:00,
2013-08-30 03:01:00,59.9,58.8,29.94,NW,323,0.0,0.0,96,0.00,,,0.00,Wunderground v.1.15,2013-08-30 07:01:00,
2013-08-30 03:06:00,60.0,58.9,29.94,NW,323,0.0,1.0,96,0.00,,,0.00,Wunderground v.1.15,2013-08-30 07:06:00,
2013-08-30 03:11:00,60.0,58.9,29.94,NW,323,0.0,0.0,96,0.00,,,0.00,Wunderground v.1.15,2013-08-30 07:11:00,
2013-08-30 03:16:00,60.0,58.6,29.94,NNW,327,0.0,1.0,95,0.00,,,0.00,Wunderground v.1.15,2013-08-30 07:16:00,
2013-08-30 03:21:00,60.0,58.6,29.94,NNW,329,0.0,0.0,95,0.00,,,0.00,Wunderground v.1.15,2013-08-30 07:21:00,
2013-08-30 03:26:00,60.1,58.7,29.93,West,265,0.0,0.0,95,0.00,,,0.00,Wunderground v.1.15,2013-08-30 07:26:00,
2013-08-30 03:32:00,60.2,58.8,29.93,WNW,292,0.0,0.0,95,0.00,,,0.00,Wunderground v.1.15,2013-08-30 07:32:00,
2013-08-30 03:37:00,60.2,58.8,29.93,WNW,292,0.0,0.0,95,0.00,,,0.00,Wunderground v.1.15,2013-08-30 07:37:00,
2013-08-30 03:42:00,60.3,58.9,29.93,WNW,292,0.0,0.0,95,0.00,,,0.00,Wunderground v.1.15,2013-08-30 07:42:00,
2013-08-30 03:47:00,60.4,59.0,29.93,WNW,292,0.0,0.0,95,0.00,,,0.00,Wunderground v.1.15,2013-08-30 07:47:00,
2013-08-30 03:52:00,60.4,58.7,29.92,WNW,292,0.0,0.0,94,0.00,,,0.00,Wunderground v.1.15,2013-08-30 07:52:00,
2013-08-30 03:57:00,60.4,58.7,29.92,WNW,292,0.0,1.0,94,0.00,,,0.00,Wunderground v.1.15,2013-08-30 07:57:00,
2013-08-30 04:02:00,60.5,58.8,29.92,WNW,292,0.0,0.0,94,0.00,,,0.00,Wunderground v.1.15,2013-08-30 08:02:00,
2013-08-30 04:07:00,60.5,58.8,29.92,WNW,292,0.0,0.0,94,0.00,,,0.00,Wunderground v.1.15,2013-08-30 08:07:00,
2013-08-30 04:12:00,60.5,58.8,29.92,WNW,292,0.0,0.0,94,0.00,,,0.00,Wunderground v.1.15,2013-08-30 08:12:00,
2013-08-30 04:17:00,60.6,58.9,29.92,WNW,292,0.0,0.0,94,0.00,,,0.00,Wunderground v.1.15,2013-08-30 08:17:00,
2013-08-30 04:23:00,60.6,58.9,29.92,WNW,292,0.0,0.0,94,0.00,,,0.00,Wunderground v.1.15,2013-08-30 08:23:00,
2013-08-30 04:28:00,60.6,58.9,29.92,WNW,292,0.0,0.0,94,0.00,,,0.00,Wunderground v.1.15,2013-08-30 08:28:00,
2013-08-30 04:33:00,60.7,59.0,29.92,WNW,292,0.0,0.0,94,0.00,,,0.00,Wunderground v.1.15,2013-08-30 08:33:00,
2013-08-30 04:38:00,60.7,59.0,29.92,WNW,292,0.0,0.0,94,0.00,,,0.00,Wunderground v.1.15,2013-08-30 08:38:00,
2013-08-30 04:43:00,60.7,59.0,29.92,WNW,292,0.0,0.0,94,0.00,,,0.00,Wunderground v.1.15,2013-08-30 08:43:00,
2013-08-30 04:48:00,60.8,59.1,29.92,WNW,292,0.0,0.0,94,0.00,,,0.00,Wunderground v.1.15,2013-08-30 08:48:00,
2013-08-30 04:54:00,60.8,59.1,29.92,WNW,292,0.0,1.0,94,0.00,,,0.00,Wunderground v.1.15,2013-08-30 08:54:00,
2013-08-30 04:59:00,60.8,59.1,29.92,WNW,292,0.0,1.0,94,0.00,,,0.00,Wunderground v.1.15,2013-08-30 08:59:00,
2013-08-30 05:05:00,60.8,59.1,29.92,WNW,292,0.0,0.0,94,0.00,,,0.00,Wunderground v.1.15,2013-08-30 09:05:00,
2013-08-30 05:10:00,60.8,59.1,29.92,WNW,292,0.0,0.0,94,0.00,,,0.00,Wunderground v.1.15,2013-08-30 09:10:00,
2013-08-30 05:15:00,60.8,59.1,29.92,WNW,292,0.0,1.0,94,0.00,,,0.00,Wunderground v.1.15,2013-08-30 09:15:00,
2013-08-30 05:21:00,60.8,59.1,29.92,WNW,292,0.0,0.0,94,0.00,,,0.00,Wunderground v.1.15,2013-08-30 09:21:00,
2013-08-30 05:26:00,60.8,59.1,29.92,WNW,292,0.0,0.0,94,0.00,,,0.00,Wunderground v.1.15,2013-08-30 09:26:00,
2013-08-30 05:31:00,60.8,59.1,29.92,WNW,292,0.0,0.0,94,0.00,,,0.00,Wunderground v.1.15,2013-08-30 09:31:00,
2013-08-30 05:36:00,60.8,59.1,29.92,WNW,292,0.0,0.0,94,0.00,,,0.00,Wunderground v.1.15,2013-08-30 09:36:00,
2013-08-30 05:41:00,60.9,59.2,29.92,WNW,292,0.0,0.0,94,0.00,,,0.00,Wunderground v.1.15,2013-08-30 09:41:00,
2013-08-30 05:47:00,60.9,59.2,29.93,WNW,292,0.0,0.0,94,0.00,,,0.00,Wunderground v.1.15,2013-08-30 09:47:00,
2013-08-30 05:52:00,60.9,59.2,29.93,WNW,292,0.0,0.0,94,0.00,,,0.00,Wunderground v.1.15,2013-08-30 09:52:00,
2013-08-30 05:58:00,61.0,59.3,29.93,WNW,292,0.0,0.0,94,0.00,,,0.00,Wunderground v.1.15,2013-08-30 09:58:00,
2013-08-30 06:03:00,61.0,59.0,29.93,WNW,303,0.0,1.0,93,0.00,,,0.00,Wunderground v.1.15,2013-08-30 10:03:00,
2013-08-30 06:08:00,61.1,59.4,29.93,WNW,303,0.0,1.0,94,0.00,,,0.00,Wunderground v.1.15,2013-08-30 10:08:00,
2013-08-30 06:13:00,61.1,59.4,29.93,WNW,302,0.0,0.0,94,0.00,,,0.00,Wunderground v.1.15,2013-08-30 10:13:00,
2013-08-30 06:18:00,61.1,59.4,29.93,WNW,302,0.0,0.0,94,0.00,,,0.00,Wunderground v.1.15,2013-08-30 10:18:00,
2013-08-30 06:23:00,61.1,59.1,29.94,NW,314,0.0,1.0,93,0.00,,,0.00,Wunderground v.1.15,2013-08-30 10:23:00,
2013-08-30 06:28:00,61.2,59.5,29.94,West,275,1.0,2.0,94,0.00,,,0.00,Wunderground v.1.15,2013-08-30 10:28:00,
2013-08-30 06:34:00,61.2,59.2,29.94,WNW,282,1.0,2.0,93,0.00,,,0.00,Wunderground v.1.15,2013-08-30 10:34:00,
2013-08-30 06:40:00,61.3,59.3,29.94,WSW,250,2.0,2.0,93,0.00,,,0.00,Wunderground v.1.15,2013-08-30 10:40:00,
2013-08-30 06:45:00,61.4,59.4,29.94,WSW,252,1.0,2.0,93,0.00,,,0.00,Wunderground v.1.15,2013-08-30 10:45:00,
2013-08-30 06:50:00,61.4,59.4,29.94,WNW,293,0.0,0.0,93,0.00,,,0.00,Wunderground v.1.15,2013-08-30 10:50:00,
2013-08-30 06:55:00,61.4,59.4,29.93,West,266,1.0,2.0,93,0.00,,,0.00,Wunderground v.1.15,2013-08-30 10:55:00,
2013-08-30 07:00:00,61.4,59.4,29.93,WNW,282,1.0,3.0,93,0.00,,,0.00,Wunderground v.1.15,2013-08-30 11:00:00,
2013-08-30 07:05:00,61.4,59.4,29.93,West,266,1.0,3.0,93,0.00,,,0.00,Wunderground v.1.15,2013-08-30 11:05:00,
2013-08-30 07:10:00,61.5,59.5,29.93,West,266,1.0,1.0,93,0.00,,,0.00,Wunderground v.1.15,2013-08-30 11:10:00,
2013-08-30 07:16:00,61.5,59.5,29.93,West,264,1.0,3.0,93,0.00,,,0.00,Wunderground v.1.15,2013-08-30 11:16:00,
2013-08-30 07:21:00,61.5,59.5,29.93,SW,233,2.0,2.0,93,0.00,,,0.00,Wunderground v.1.15,2013-08-30 11:21:00,
2013-08-30 07:26:00,61.6,59.3,29.93,SW,235,2.0,4.0,92,0.00,,,0.00,Wunderground v.1.15,2013-08-30 11:26:00,
2013-08-30 07:32:00,61.6,59.6,29.93,West,280,2.0,4.0,93,0.00,,,0.00,Wunderground v.1.15,2013-08-30 11:32:00,
2013-08-30 07:38:00,61.8,59.8,29.93,WNW,285,2.0,5.0,93,0.00,,,0.00,Wunderground v.1.15,2013-08-30 11:38:00,
2013-08-30 07:43:00,62.0,59.6,29.93,NW,305,1.0,3.0,92,0.00,,,0.00,Wunderground v.1.15,2013-08-30 11:43:00,
2013-08-30 07:48:00,62.1,59.7,29.93,WSW,248,2.0,4.0,92,0.00,,,0.00,Wunderground v.1.15,2013-08-30 11:48:00,
2013-08-30 07:53:00,62.2,59.5,29.93,WSW,247,2.0,4.0,91,0.00,,,0.00,Wunderground v.1.15,2013-08-30 11:53:00,
2013-08-30 07:58:00,62.2,59.5,29.93,SW,217,3.0,7.0,91,0.00,,,0.00,Wunderground v.1.15,2013-08-30 11:58:00,
2013-08-30 08:03:00,62.3,59.6,29.93,WNW,290,3.0,3.0,91,0.00,,,0.00,Wunderground v.1.15,2013-08-30 12:03:00,
2013-08-30 08:08:00,62.3,59.3,29.93,SW,225,2.0,7.0,90,0.00,,,0.00,Wunderground v.1.15,2013-08-30 12:08:00,
2013-08-30 08:13:00,62.3,59.3,29.93,SW,234,3.0,4.0,90,0.00,,,0.00,Wunderground v.1.15,2013-08-30 12:13:00,
2013-08-30 08:18:00,62.4,59.4,29.93,WSW,244,2.0,4.0,90,0.00,,,0.00,Wunderground v.1.15,2013-08-30 12:18:00,
2013-08-30 08:23:00,62.4,59.4,29.93,West,267,3.0,5.0,90,0.00,,,0.00,Wunderground v.1.15,2013-08-30 12:23:00,
2013-08-30 08:29:00,62.5,59.5,29.92,West,273,3.0,5.0,90,0.00,,,0.00,Wunderground v.1.15,2013-08-30 12:29:00,
2013-08-30 08:34:00,62.5,59.5,29.92,West,261,2.0,5.0,90,0.00,,,0.00,Wunderground v.1.15,2013-08-30 12:34:00,
2013-08-30 08:40:00,62.6,59.6,29.92,West,277,3.0,3.0,90,0.00,,,0.00,Wunderground v.1.15,2013-08-30 12:40:00,
2013-08-30 08:45:00,62.7,59.7,29.92,WSW,246,4.0,7.0,90,0.00,,,0.00,Wunderground v.1.15,2013-08-30 12:45:00,
2013-08-30 08:50:00,63.0,59.7,29.92,SSW,199,3.0,3.0,89,0.00,,,0.00,Wunderground v.1.15,2013-08-30 12:50:00,
2013-08-30 08:55:00,63.3,60.0,29.92,SW,225,3.0,8.0,89,0.00,,,0.00,Wunderground v.1.15,2013-08-30 12:55:00,
2013-08-30 09:00:00,63.5,60.2,29.92,West,278,4.0,6.0,89,0.00,,,0.00,Wunderground v.1.15,2013-08-30 13:00:00,
2013-08-30 09:06:00,63.7,60.1,29.92,SW,234,4.0,6.0,88,0.00,,,0.00,Wunderground v.1.15,2013-08-30 13:06:00,
2013-08-30 09:11:00,63.7,60.1,29.92,West,259,3.0,5.0,88,0.00,,,0.00,Wunderground v.1.15,2013-08-30 13:11:00,
2013-08-30 09:16:00,63.7,60.1,29.92,West,261,4.0,5.0,88,0.00,,,0.00,Wunderground v.1.15,2013-08-30 13:16:00,
2013-08-30 09:21:00,63.8,60.2,29.92,WSW,244,4.0,4.0,88,0.00,,,0.00,Wunderground v.1.15,2013-08-30 13:21:00,
2013-08-30 09:26:00,64.2,60.6,29.92,NW,304,4.0,8.0,88,0.00,,,0.00,Wunderground v.1.15,2013-08-30 13:26:00,
2013-08-30 09:31:00,64.6,60.6,29.92,SSW,200,4.0,6.0,87,0.00,,,0.00,Wunderground v.1.15,2013-08-30 13:31:00,
2013-08-30 09:36:00,64.7,60.7,29.92,NW,306,4.0,6.0,87,0.00,,,0.00,Wunderground v.1.15,2013-08-30 13:36:00,
2013-08-30 09:41:00,64.8,60.8,29.91,WNW,282,4.0,6.0,87,0.00,,,0.00,Wunderground v.1.15,2013-08-30 13:41:00,
2013-08-30 09:46:00,65.0,61.0,29.91,SW,214,4.0,6.0,87,0.00,,,0.00,Wunderground v.1.15,2013-08-30 13:46:00,
2013-08-30 09:51:00,65.3,61.3,29.92,WSW,255,4.0,10.0,87,0.00,,,0.00,Wunderground v.1.15,2013-08-30 13:51:00,
2013-08-30 09:56:00,65.1,61.1,29.91,SW,227,5.0,10.0,87,0.00,,,0.00,Wunderground v.1.15,2013-08-30 13:56:00,
2013-08-30 10:02:00,65.0,61.0,29.92,SW,236,5.0,6.0,87,0.00,,,0.00,Wunderground v.1.15,2013-08-30 14:02:00,
2013-08-30 10:07:00,65.3,61.3,29.91,West,267,4.0,13.0,87,0.00,,,0.00,Wunderground v.1.15,2013-08-30 14:07:00,
2013-08-30 10:12:00,65.3,61.3,29.91,WSW,246,4.0,4.0,87,0.00,,,0.00,Wunderground v.1.15,2013-08-30 14:12:00,
2013-08-30 10:17:00,65.4,61.1,29.91,SSW,209,4.0,7.0,86,0.00,,,0.00,Wunderground v.1.15,2013-08-30 14:17:00,
2013-08-30 10:23:00,65.6,61.6,29.91,NW,320,4.0,6.0,87,0.00,,,0.00,Wunderground v.1.15,2013-08-30 14:23:00,
2013-08-30 10:29:00,66.0,62.0,29.91,WSW,253,4.0,7.0,87,0.00,,,0.00,Wunderground v.1.15,2013-08-30 14:29:00,
2013-08-30 10:34:00,66.1,62.1,29.91,West,275,4.0,6.0,87,0.00,,,0.00,Wunderground v.1.15,2013-08-30 14:34:00,
2013-08-30 10:39:00,66.4,62.1,29.91,WSW,246,4.0,7.0,86,0.00,,,0.00,Wunderground v.1.15,2013-08-30 14:39:00,
2013-08-30 10:44:00,66.5,62.5,29.91,WSW,246,4.0,8.0,87,0.00,,,0.00,Wunderground v.1.15,2013-08-30 14:44:00,
2013-08-30 10:50:00,66.6,62.3,29.91,West,281,5.0,6.0,86,0.00,,,0.00,Wunderground v.1.15,2013-08-30 14:50:00,
2013-08-30 10:55:00,66.6,62.3,29.90,SW,235,5.0,8.0,86,0.00,,,0.00,Wunderground v.1.15,2013-08-30 14:55:00,
2013-08-30 11:00:00,66.9,62.6,29.90,WSW,254,4.0,4.0,86,0.00,,,0.00,Wunderground v.1.15,2013-08-30 15:00:00,
2013-08-30 11:06:00,67.3,62.6,29.90,West,265,3.0,6.0,85,0.00,,,0.00,Wunderground v.1.15,2013-08-30 15:06:00,
2013-08-30 11:12:00,67.4,62.7,29.90,WSW,242,4.0,5.0,85,0.00,,,0.00,Wunderground v.1.15,2013-08-30 15:12:00,
2013-08-30 11:17:00,67.2,62.5,29.90,WSW,239,5.0,11.0,85,0.00,,,0.00,Wunderground v.1.15,2013-08-30 15:17:00,
2013-08-30 11:23:00,67.5,62.8,29.90,West,259,6.0,10.0,85,0.00,,,0.00,Wunderground v.1.15,2013-08-30 15:23:00,
2013-08-30 11:28:00,68.0,63.3,29.90,West,275,5.0,10.0,85,0.00,,,0.00,Wunderground v.1.15,2013-08-30 15:28:00,
2013-08-30 11:33:00,68.1,63.1,29.89,West,262,5.0,9.0,84,0.00,,,0.00,Wunderground v.1.15,2013-08-30 15:33:00,
2013-08-30 11:38:00,68.3,63.3,29.89,West,265,6.0,9.0,84,0.00,,,0.00,Wunderground v.1.15,2013-08-30 15:38:00,
2013-08-30 11:43:00,68.4,63.4,29.89,WSW,245,6.0,9.0,84,0.00,,,0.00,Wunderground v.1.15,2013-08-30 15:43:00,
2013-08-30 11:48:00,68.4,63.4,29.89,SW,221,6.0,9.0,84,0.00,,,0.00,Wunderground v.1.15,2013-08-30 15:48:00,
2013-08-30 11:53:00,68.4,63.7,29.89,WSW,240,6.0,11.0,85,0.00,,,0.00,Wunderground v.1.15,2013-08-30 15:53:00,
2013-08-30 11:59:00,69.0,64.0,29.89,WSW,246,6.0,11.0,84,0.00,,,0.00,Wunderground v.1.15,2013-08-30 15:59:00,
2013-08-30 12:04:00,69.7,64.3,29.88,West,279,6.0,9.0,83,0.00,,,0.00,Wunderground v.1.15,2013-08-30 16:04:00,
2013-08-30 12:09:00,69.9,64.2,29.88,West,279,6.0,10.0,82,0.00,,,0.00,Wunderground v.1.15,2013-08-30 16:09:00,
2013-08-30 12:14:00,69.9,64.2,29.88,SSE,166,6.0,8.0,82,0.00,,,0.00,Wunderground v.1.15,2013-08-30 16:14:00,
2013-08-30 12:19:00,70.2,64.4,29.88,WNW,288,6.0,9.0,82,0.00,,,0.00,Wunderground v.1.15,2013-08-30 16:19:00,
2013-08-30 12:24:00,70.0,64.2,29.88,West,267,5.0,8.0,82,0.00,,,0.00,Wunderground v.1.15,2013-08-30 16:24:00,
2013-08-30 12:30:00,70.0,64.2,29.88,West,273,5.0,6.0,82,0.00,,,0.00,Wunderground v.1.15,2013-08-30 16:30:00,
2013-08-30 12:36:00,70.3,64.5,29.87,South,189,6.0,6.0,82,0.00,,,0.00,Wunderground v.1.15,2013-08-30 16:36:00,
2013-08-30 12:41:00,70.7,64.2,29.87,West,267,6.0,6.0,80,0.00,,,0.00,Wunderground v.1.15,2013-08-30 16:41:00,
2013-08-30 12:46:00,71.0,64.9,29.87,West,276,6.0,11.0,81,0.00,,,0.00,Wunderground v.1.15,2013-08-30 16:46:00,
2013-08-30 12:51:00,71.3,64.8,29.86,SW,218,6.0,6.0,80,0.00,,,0.00,Wunderground v.1.15,2013-08-30 16:51:00,
2013-08-30 12:57:00,71.2,64.7,29.86,SW,215,5.0,8.0,80,0.00,,,0.00,Wunderground v.1.15,2013-08-30 16:57:00,
2013-08-30 13:02:00,71.1,64.6,29.86,West,272,6.0,9.0,80,0.00,,,0.00,Wunderground v.1.15,2013-08-30 17:02:00,
2013-08-30 13:08:00,71.2,64.7,29.86,SW,228,6.0,9.0,80,0.00,,,0.00,Wunderground v.1.15,2013-08-30 17:08:00,
2013-08-30 13:13:00,72.1,64.9,29.86,WSW,241,6.0,7.0,78,0.00,,,0.00,Wunderground v.1.15,2013-08-30 17:13:00,
2013-08-30 13:19:00,72.4,65.2,29.85,WSW,256,6.0,8.0,78,0.00,,,0.00,Wunderground v.1.15,2013-08-30 17:19:00,
2013-08-30 13:24:00,72.8,65.5,29.85,SSW,211,4.0,6.0,78,0.00,,,0.00,Wunderground v.1.15,2013-08-30 17:24:00,
2013-08-30 13:29:00,72.9,65.6,29.85,West,260,4.0,8.0,78,0.00,,,0.00,Wunderground v.1.15,2013-08-30 17:29:00,
2013-08-30 13:35:00,72.8,65.2,29.85,West,267,4.0,7.0,77,0.00,,,0.00,Wunderground v.1.15,2013-08-30 17:35:00,
2013-08-30 13:41:00,72.5,65.2,29.85,WNW,295,4.0,4.0,78,0.00,,,0.00,Wunderground v.1.15,2013-08-30 17:41:00,
2013-08-30 13:46:00,72.4,65.5,29.84,West,277,4.0,9.0,79,0.00,,,0.00,Wunderground v.1.15,2013-08-30 17:46:00,
2013-08-30 13:51:00,72.5,65.2,29.84,West,277,4.0,5.0,78,0.00,,,0.00,Wunderground v.1.15,2013-08-30 17:51:00,
2013-08-30 13:57:00,73.0,65.4,29.84,West,261,5.0,9.0,77,0.00,,,0.00,Wunderground v.1.15,2013-08-30 17:57:00,
2013-08-30 14:02:00,73.3,66.0,29.83,SSW,211,6.0,9.0,78,0.00,,,0.00,Wunderground v.1.15,2013-08-30 18:02:00,
2013-08-30 14:07:00,73.5,65.8,29.83,SSW,192,5.0,9.0,77,0.00,,,0.00,Wunderground v.1.15,2013-08-30 18:07:00,
2013-08-30 14:12:00,73.8,65.8,29.83,WSW,250,4.0,6.0,76,0.00,,,0.00,Wunderground v.1.15,2013-08-30 18:12:00,
2013-08-30 14:18:00,74.2,65.8,29.83,West,268,4.0,11.0,75,0.00,,,0.00,Wunderground v.1.15,2013-08-30 18:18:00,
2013-08-30 14:24:00,74.7,66.6,29.82,WSW,258,5.0,7.0,76,0.00,,,0.00,Wunderground v.1.15,2013-08-30 18:24:00,
2013-08-30 14:29:00,75.1,66.6,29.82,SW,231,5.0,8.0,75,0.00,,,0.00,Wunderground v.1.15,2013-08-30 18:29:00,
2013-08-30 14:34:00,75.3,66.8,29.82,SW,236,5.0,11.0,75,0.00,,,0.00,Wunderground v.1.15,2013-08-30 18:34:00,
2013-08-30 14:39:00,75.5,66.6,29.82,WSW,240,5.0,11.0,74,0.00,,,0.00,Wunderground v.1.15,2013-08-30 18:39:00,
2013-08-30 14:45:00,75.8,66.5,29.82,SW,231,5.0,7.0,73,0.00,,,0.00,Wunderground v.1.15,2013-08-30 18:45:00,
2013-08-30 14:50:00,76.0,66.3,29.82,West,262,5.0,5.0,72,0.00,,,0.00,Wunderground v.1.15,2013-08-30 18:50:00,
2013-08-30 14:55:00,75.7,66.4,29.82,SSW,192,6.0,9.0,73,0.00,,,0.00,Wunderground v.1.15,2013-08-30 18:55:00,
2013-08-30 15:00:00,75.7,66.4,29.82,West,267,5.0,7.0,73,0.00,,,0.00,Wunderground v.1.15,2013-08-30 19:00:00,
2013-08-30 15:06:00,76.0,66.3,29.82,WNW,289,6.0,9.0,72,0.00,,,0.00,Wunderground v.1.15,2013-08-30 19:06:00,
2013-08-30 15:12:00,76.3,67.0,29.82,NW,315,5.0,6.0,73,0.00,,,0.00,Wunderground v.1.15,2013-08-30 19:12:00,
2013-08-30 15:17:00,76.9,66.8,29.82,WSW,257,4.0,8.0,71,0.00,,,0.00,Wunderground v.1.15,2013-08-30 19:17:00,
2013-08-30 15:22:00,77.0,66.9,29.82,WSW,258,5.0,7.0,71,0.00,,,0.00,Wunderground v.1.15,2013-08-30 19:22:00,
2013-08-30 15:27:00,77.2,66.7,29.81,WSW,250,5.0,9.0,70,0.00,,,0.00,Wunderground v.1.15,2013-08-30 19:27:00,
2013-08-30 15:32:00,77.3,66.7,29.81,NW,311,5.0,7.0,70,0.00,,,0.00,Wunderground v.1.15,2013-08-30 19:32:00,
2013-08-30 15:37:00,77.3,66.7,29.81,WSW,258,5.0,7.0,70,0.00,,,0.00,Wunderground v.1.15,2013-08-30 19:37:00,
2013-08-30 15:43:00,77.4,66.8,29.81,SW,235,5.0,7.0,70,0.00,,,0.00,Wunderground v.1.15,2013-08-30 19:43:00,
2013-08-30 15:48:00,77.4,66.8,29.81,SW,225,6.0,9.0,70,0.00,,,0.00,Wunderground v.1.15,2013-08-30 19:48:00,
2013-08-30 15:54:00,78.0,67.4,29.81,WSW,240,5.0,6.0,70,0.00,,,0.00,Wunderground v.1.15,2013-08-30 19:54:00,
2013-08-30 16:00:00,78.0,67.0,29.81,WSW,240,6.0,6.0,69,0.00,,,0.00,Wunderground v.1.15,2013-08-30 20:00:00,
2013-08-30 16:06:00,78.3,66.9,29.81,WSW,257,5.0,6.0,68,0.00,,,0.00,Wunderground v.1.15,2013-08-30 20:06:00,
2013-08-30 16:11:00,78.5,67.1,29.81,West,259,4.0,8.0,68,0.00,,,0.00,Wunderground v.1.15,2013-08-30 20:11:00,
2013-08-30 16:16:00,78.8,67.3,29.80,WSW,244,4.0,8.0,68,0.00,,,0.00,Wunderground v.1.15,2013-08-30 20:16:00,
2013-08-30 16:22:00,78.7,67.2,29.80,WNW,286,4.0,7.0,68,0.00,,,0.00,Wunderground v.1.15,2013-08-30 20:22:00,
2013-08-30 16:27:00,78.8,67.3,29.80,SSW,204,4.0,7.0,68,0.00,,,0.00,Wunderground v.1.15,2013-08-30 20:27:00,
2013-08-30 16:33:00,78.8,67.3,29.80,SW,221,4.0,6.0,68,0.00,,,0.00,Wunderground v.1.15,2013-08-30 20:33:00,
2013-08-30 16:39:00,78.7,66.8,29.80,North,11,5.0,7.0,67,0.00,,,0.00,Wunderground v.1.15,2013-08-30 20:39:00,
2013-08-30 16:45:00,78.8,67.3,29.80,WSW,249,4.0,6.0,68,0.00,,,0.00,Wunderground v.1.15,2013-08-30 20:45:00,
2013-08-30 16:50:00,78.9,67.0,29.80,SW,235,4.0,7.0,67,0.00,,,0.00,Wunderground v.1.15,2013-08-30 20:50:00,
2013-08-30 16:55:00,78.6,67.2,29.80,West,267,4.0,7.0,68,0.00,,,0.00,Wunderground v.1.15,2013-08-30 20:55:00,
2013-08-30 17:01:00,78.7,67.2,29.80,SW,219,4.0,4.0,68,0.00,,,0.00,Wunderground v.1.15,2013-08-30 21:01:00,
2013-08-30 17:06:00,78.7,67.2,29.80,WSW,240,4.0,5.0,68,0.00,,,0.00,Wunderground v.1.15,2013-08-30 21:06:00,
2013-08-30 17:12:00,78.7,67.2,29.80,SSW,212,4.0,4.0,68,0.00,,,0.00,Wunderground v.1.15,2013-08-30 21:12:00,
2013-08-30 17:17:00,78.6,67.2,29.80,South,175,4.0,5.0,68,0.00,,,0.00,Wunderground v.1.15,2013-08-30 21:17:00,
2013-08-30 17:22:00,78.4,67.0,29.80,South,173,4.0,7.0,68,0.00,,,0.00,Wunderground v.1.15,2013-08-30 21:22:00,
2013-08-30 17:28:00,78.3,67.3,29.80,South,184,5.0,7.0,69,0.00,,,0.00,Wunderground v.1.15,2013-08-30 21:28:00,
2013-08-30 17:33:00,78.2,67.2,29.80,WSW,250,5.0,6.0,69,0.00,,,0.00,Wunderground v.1.15,2013-08-30 21:33:00,
2013-08-30 17:38:00,78.4,67.0,29.80,West,265,3.0,6.0,68,0.00,,,0.00,Wunderground v.1.15,2013-08-30 21:38:00,
2013-08-30 17:44:00,78.5,67.5,29.80,West,263,2.0,5.0,69,0.00,,,0.00,Wunderground v.1.15,2013-08-30 21:44:00,
2013-08-30 17:49:00,78.5,67.5,29.80,WSW,257,3.0,7.0,69,0.00,,,0.00,Wunderground v.1.15,2013-08-30 21:49:00,
2013-08-30 17:54:00,78.3,67.7,29.80,WNW,284,3.0,5.0,70,0.00,,,0.00,Wunderground v.1.15,2013-08-30 21:54:00,
2013-08-30 18:00:00,78.2,67.6,29.80,WSW,250,3.0,5.0,70,0.00,,,0.00,Wunderground v.1.15,2013-08-30 22:00:00,
2013-08-30 18:05:00,78.0,67.4,29.80,WSW,244,3.0,5.0,70,0.00,,,0.00,Wunderground v.1.15,2013-08-30 22:05:00,
2013-08-30 18:10:00,77.8,67.6,29.80,WSW,238,3.0,3.0,71,0.00,,,0.00,Wunderground v.1.15,2013-08-30 22:10:00,
2013-08-30 18:16:00,77.6,67.9,29.80,South,177,3.0,5.0,72,0.00,,,0.00,Wunderground v.1.15,2013-08-30 22:16:00,
2013-08-30 18:22:00,77.3,68.0,29.80,SSW,203,3.0,5.0,73,0.00,,,0.00,Wunderground v.1.15,2013-08-30 22:22:00,
2013-08-30 18:28:00,76.6,68.1,29.80,West,270,3.0,5.0,75,0.00,,,0.00,Wunderground v.1.15,2013-08-30 22:28:00,
2013-08-30 18:34:00,76.1,68.0,29.80,WSW,239,3.0,4.0,76,0.00,,,0.00,Wunderground v.1.15,2013-08-30 22:34:00,
2013-08-30 18:40:00,75.6,67.9,29.80,SSW,196,3.0,3.0,77,0.00,,,0.00,Wunderground v.1.15,2013-08-30 22:40:00,
2013-08-30 18:45:00,75.3,68.0,29.80,South,188,2.0,6.0,78,0.00,,,0.00,Wunderground v.1.15,2013-08-30 22:45:00,
2013-08-30 18:51:00,75.0,68.0,29.80,WSW,238,2.0,2.0,79,0.00,,,0.00,Wunderground v.1.15,2013-08-30 22:51:00,
2013-08-30 18:57:00,74.6,68.0,29.80,WSW,241,2.0,5.0,80,0.00,,,0.00,Wunderground v.1.15,2013-08-30 22:57:00,
2013-08-30 19:03:00,74.3,67.7,29.80,SW,236,2.0,7.0,80,0.00,,,0.00,Wunderground v.1.15,2013-08-30 23:03:00,
2013-08-30 19:08:00,74.1,67.9,29.80,South,172,2.0,7.0,81,0.00,,,0.00,Wunderground v.1.15,2013-08-30 23:08:00,
2013-08-30 19:14:00,73.9,67.7,29.80,WSW,249,2.0,5.0,81,0.00,,,0.00,Wunderground v.1.15,2013-08-30 23:14:00,
2013-08-30 19:19:00,73.7,67.9,29.80,SSW,205,3.0,5.0,82,0.00,,,0.00,Wunderground v.1.15,2013-08-30 23:19:00,
2013-08-30 19:25:00,73.5,67.7,29.80,SW,222,2.0,5.0,82,0.00,,,0.00,Wunderground v.1.15,2013-08-30 23:25:00,
2013-08-30 19:30:00,73.3,67.8,29.80,WSW,238,2.0,4.0,83,0.00,,,0.00,Wunderground v.1.15,2013-08-30 23:30:00,
2013-08-30 19:35:00,73.0,67.5,29.80,SW,226,2.0,4.0,83,0.00,,,0.00,Wunderground v.1.15,2013-08-30 23:35:00,
2013-08-30 19:41:00,72.8,67.7,29.80,SW,232,2.0,4.0,84,0.00,,,0.00,Wunderground v.1.15,2013-08-30 23:41:00,
2013-08-30 19:46:00,72.6,67.5,29.80,SSW,213,2.0,4.0,84,0.00,,,0.00,Wunderground v.1.15,2013-08-30 23:46:00,
2013-08-30 19:51:00,72.5,67.7,29.80,South,177,3.0,4.0,85,0.00,,,0.00,Wunderground v.1.15,2013-08-30 23:51:00,
2013-08-30 19:57:00,72.3,67.5,29.80,SW,228,3.0,4.0,85,0.00,,,0.00,Wunderground v.1.15,2013-08-30 23:57:00,
2013-08-30 20:02:00,72.1,67.7,29.80,SSW,213,3.0,3.0,86,0.00,,,0.00,Wunderground v.1.15,2013-08-31 00:02:00,
2013-08-30 20:07:00,71.9,67.8,29.80,South,184,3.0,3.0,87,0.00,,,0.00,Wunderground v.1.15,2013-08-31 00:07:00,
2013-08-30 20:13:00,71.8,67.7,29.80,South,180,3.0,5.0,87,0.00,,,0.00,Wunderground v.1.15,2013-08-31 00:13:00,
2013-08-30 20:18:00,71.6,67.5,29.81,SW,229,3.0,5.0,87,0.00,,,0.00,Wunderground v.1.15,2013-08-31 00:18:00,
2013-08-30 20:24:00,71.4,67.7,29.81,SW,227,2.0,3.0,88,0.00,,,0.00,Wunderground v.1.15,2013-08-31 00:24:00,
2013-08-30 20:29:00,71.2,67.5,29.80,SW,228,3.0,4.0,88,0.00,,,0.00,Wunderground v.1.15,2013-08-31 00:29:00,
2013-08-30 20:35:00,71.1,67.7,29.81,WSW,246,3.0,7.0,89,0.00,,,0.00,Wunderground v.1.15,2013-08-31 00:35:00,
2013-08-30 20:40:00,70.9,67.5,29.80,SSW,196,3.0,7.0,89,0.00,,,0.00,Wunderground v.1.15,2013-08-31 00:40:00,
2013-08-30 20:46:00,70.7,67.6,29.80,SSW,201,4.0,8.0,90,0.00,,,0.00,Wunderground v.1.15,2013-08-31 00:46:00,
2013-08-30 20:51:00,70.5,67.4,29.81,SSW,201,4.0,4.0,90,0.00,,,0.00,Wunderground v.1.15,2013-08-31 00:51:00,
2013-08-30 20:57:00,70.3,67.2,29.80,SW,229,4.0,4.0,90,0.00,,,0.00,Wunderground v.1.15,2013-08-31 00:57:00,
2013-08-30 21:03:00,70.2,67.4,29.80,SW,222,4.0,5.0,91,0.00,,,0.00,Wunderground v.1.15,2013-08-31 01:03:00,
2013-08-30 21:09:00,70.0,67.3,29.80,SSW,198,3.0,8.0,91,0.00,,,0.00,Wunderground v.1.15,2013-08-31 01:09:00,
2013-08-30 21:14:00,69.9,67.2,29.80,West,265,4.0,6.0,91,0.00,,,0.00,Wunderground v.1.15,2013-08-31 01:14:00,
2013-08-30 21:20:00,69.8,67.1,29.80,South,174,4.0,4.0,91,0.00,,,0.00,Wunderground v.1.15,2013-08-31 01:20:00,
2013-08-30 21:25:00,69.7,67.0,29.80,WNW,299,3.0,6.0,91,0.00,,,0.00,Wunderground v.1.15,2013-08-31 01:25:00,
2013-08-30 21:30:00,69.7,67.3,29.80,WSW,238,3.0,4.0,92,0.00,,,0.00,Wunderground v.1.15,2013-08-31 01:30:00,
2013-08-30 21:36:00,69.6,67.2,29.80,WSW,242,3.0,4.0,92,0.00,,,0.00,Wunderground v.1.15,2013-08-31 01:36:00,
2013-08-30 21:41:00,69.6,67.2,29.80,SW,232,3.0,4.0,92,0.00,,,0.00,Wunderground v.1.15,2013-08-31 01:41:00,
2013-08-30 21:46:00,69.6,67.2,29.80,SSW,212,3.0,4.0,92,0.00,,,0.00,Wunderground v.1.15,2013-08-31 01:46:00,
2013-08-30 21:52:00,69.5,67.1,29.80,WSW,258,3.0,3.0,92,0.00,,,0.00,Wunderground v.1.15,2013-08-31 01:52:00,
2013-08-30 21:57:00,69.5,67.1,29.80,West,261,3.0,3.0,92,0.00,,,0.00,Wunderground v.1.15,2013-08-31 01:57:00,
2013-08-30 22:03:00,69.4,67.0,29.80,WSW,258,3.0,4.0,92,0.00,,,0.00,Wunderground v.1.15,2013-08-31 02:03:00,
2013-08-30 22:09:00,69.4,67.0,29.80,WSW,246,3.0,5.0,92,0.00,,,0.00,Wunderground v.1.15,2013-08-31 02:09:00,
2013-08-30 22:14:00,69.3,67.2,29.80,SSW,199,3.0,6.0,93,0.00,,,0.00,Wunderground v.1.15,2013-08-31 02:14:00,
2013-08-30 22:20:00,69.2,67.1,29.80,West,267,4.0,4.0,93,0.00,,,0.00,Wunderground v.1.15,2013-08-31 02:20:00,
2013-08-30 22:25:00,69.1,67.0,29.80,West,261,4.0,5.0,93,0.00,,,0.00,Wunderground v.1.15,2013-08-31 02:25:00,
2013-08-30 22:31:00,69.1,67.0,29.80,SW,230,3.0,5.0,93,0.00,,,0.00,Wunderground v.1.15,2013-08-31 02:31:00,
2013-08-30 22:36:00,69.0,66.9,29.80,WSW,254,3.0,5.0,93,0.00,,,0.00,Wunderground v.1.15,2013-08-31 02:36:00,
2013-08-30 22:42:00,69.0,67.2,29.80,SSW,207,2.0,5.0,94,0.00,,,0.00,Wunderground v.1.15,2013-08-31 02:42:00,
2013-08-30 22:47:00,69.1,67.3,29.80,WSW,250,3.0,6.0,94,0.00,,,0.00,Wunderground v.1.15,2013-08-31 02:47:00,
2013-08-30 22:53:00,69.1,67.3,29.80,SSW,207,3.0,3.0,94,0.00,,,0.00,Wunderground v.1.15,2013-08-31 02:53:00,
2013-08-30 22:58:00,69.2,67.4,29.80,SW,224,3.0,4.0,94,0.00,,,0.00,Wunderground v.1.15,2013-08-31 02:58:00,
2013-08-30 23:03:00,69.2,67.4,29.80,SE,128,3.0,6.0,94,0.00,,,0.00,Wunderground v.1.15,2013-08-31 03:03:00,
2013-08-30 23:09:00,69.2,67.4,29.80,West,259,3.0,6.0,94,0.00,,,0.00,Wunderground v.1.15,2013-08-31 03:09:00,
2013-08-30 23:14:00,69.2,67.4,29.80,WSW,246,3.0,7.0,94,0.00,,,0.00,Wunderground v.1.15,2013-08-31 03:14:00,
2013-08-30 23:20:00,69.3,67.5,29.80,WSW,250,4.0,4.0,94,0.00,,,0.00,Wunderground v.1.15,2013-08-31 03:20:00,
2013-08-30 23:25:00,69.2,67.4,29.80,SSW,209,4.0,7.0,94,0.00,,,0.00,Wunderground v.1.15,2013-08-31 03:25:00,
2013-08-30 23:30:00,69.2,67.4,29.79,SSW,209,3.0,3.0,94,0.00,,,0.00,Wunderground v.1.15,2013-08-31 03:30:00,
2013-08-30 23:36:00,69.2,67.4,29.79,West,267,3.0,5.0,94,0.00,,,0.00,Wunderground v.1.15,2013-08-31 03:36:00,
2013-08-30 23:41:00,69.2,67.4,29.80,SW,217,3.0,6.0,94,0.00,,,0.00,Wunderground v.1.15,2013-08-31 03:41:00,
2013-08-30 23:47:00,69.2,67.4,29.79,SSW,195,3.0,6.0,94,0.00,,,0.00,Wunderground v.1.15,2013-08-31 03:47:00,
2013-08-30 23:52:00,69.1,67.3,29.79,SW,221,2.0,6.0,94,0.00,,,0.00,Wunderground v.1.15,2013-08-31 03:52:00,
2013-08-30 23:58:00,69.0,67.2,29.79,SSE,166,3.0,7.0,94,0.00,,,0.00,Wunderground v.1.15,2013-08-31 03:58:00,